createdAt,value
2022-11-10T00:00:49.818Z,1.97
2022-11-10T00:03:17.302Z,1.70
2022-11-10T00:05:44.747Z,2.00
2022-11-10T00:08:13.183Z,2.10
2022-11-10T00:10:55.163Z,2.10
2022-11-10T00:13:24.298Z,2.50
2022-11-10T00:16:09.265Z,2.10
2022-11-10T00:18:36.745Z,2.07
2022-11-10T00:21:05.275Z,2.00
2022-11-10T00:23:32.687Z,2.30
2022-11-10T00:26:00.148Z,2.30
2022-11-10T00:28:30.597Z,2.17
2022-11-10T00:30:58.171Z,2.00
2022-11-10T00:33:25.686Z,2.30
2022-11-10T00:35:53.087Z,1.90
2022-11-10T00:38:20.586Z,2.43
2022-11-10T00:40:48.641Z,1.93
2022-11-10T00:43:16.029Z,1.80
2022-11-10T00:45:45.324Z,2.10
2022-11-10T00:48:12.747Z,1.97
2022-11-10T00:50:40.157Z,2.00
2022-11-10T00:53:07.575Z,2.10
2022-11-10T00:55:37.759Z,1.90
2022-11-10T00:58:05.187Z,1.93
2022-11-10T01:00:32.709Z,2.07
2022-11-10T01:03:03.014Z,1.87
2022-11-10T01:05:30.442Z,2.57
2022-11-10T01:07:58.397Z,1.90
2022-11-10T01:10:26.033Z,2.00
2022-11-10T01:12:53.817Z,1.77
2022-11-10T01:15:27.110Z,2.10
2022-11-10T01:17:55.616Z,2.00
2022-11-10T01:20:24.372Z,1.70
2022-11-10T01:22:52.183Z,1.73
2022-11-10T01:25:19.643Z,2.00
2022-11-10T01:27:47.048Z,2.00
2022-11-10T01:30:14.557Z,2.20
2022-11-10T01:32:41.951Z,2.00
2022-11-10T01:35:09.644Z,2.00
2022-11-10T01:37:39.913Z,1.90
2022-11-10T01:40:08.559Z,1.90
2022-11-10T01:42:43.519Z,1.80
2022-11-10T01:45:34.388Z,1.97
2022-11-10T01:48:04.171Z,1.90
2022-11-10T01:50:33.477Z,1.80
2022-11-10T01:53:04.330Z,2.00
2022-11-10T01:55:32.277Z,2.00
2022-11-10T01:57:59.866Z,2.00
2022-11-10T02:00:27.315Z,1.80
2022-11-10T02:02:57.037Z,1.83
2022-11-10T02:05:25.224Z,1.70
2022-11-10T02:07:52.864Z,2.10
2022-11-10T02:10:21.981Z,1.47
2022-11-10T02:12:49.801Z,2.10
2022-11-10T02:15:18.481Z,1.97
2022-11-10T02:17:47.601Z,2.20
2022-11-10T02:20:17.144Z,1.60
2022-11-10T02:22:46.289Z,1.90
2022-11-10T02:25:14.703Z,2.10
2022-11-10T02:27:42.176Z,1.90
2022-11-10T02:30:10.079Z,1.90
2022-11-10T02:32:37.586Z,1.97
2022-11-10T02:35:05.255Z,1.67
2022-11-10T02:37:32.688Z,2.07
2022-11-10T02:40:01.815Z,1.80
2022-11-10T02:42:29.255Z,1.70
2022-11-10T02:44:56.923Z,1.57
2022-11-10T02:47:24.547Z,1.90
2022-11-10T02:49:51.958Z,2.00
2022-11-10T02:52:19.478Z,1.63
2022-11-10T02:54:46.890Z,1.90
2022-11-10T02:57:15.636Z,1.90
2022-11-10T02:59:43.033Z,1.90
2022-11-10T03:02:10.454Z,1.80
2022-11-10T03:04:37.862Z,1.67
2022-11-10T03:07:05.340Z,1.80
2022-11-10T03:09:33.189Z,2.10
2022-11-10T03:12:00.610Z,2.00
2022-11-10T03:14:29.672Z,1.87
2022-11-10T03:16:57.084Z,1.47
2022-11-10T03:19:24.515Z,1.50
2022-11-10T03:21:51.913Z,1.70
2022-11-10T03:24:19.400Z,1.80
2022-11-10T03:26:46.811Z,2.00
2022-11-10T03:29:14.227Z,1.63
2022-11-10T03:31:43.023Z,1.80
2022-11-10T03:34:10.655Z,1.90
2022-11-10T03:36:38.136Z,1.93
2022-11-10T03:39:05.549Z,1.50
2022-11-10T03:41:33.291Z,1.87
2022-11-10T03:44:03.125Z,1.90
2022-11-10T03:46:30.531Z,2.03
2022-11-10T03:48:59.281Z,2.10
2022-11-10T03:51:26.806Z,1.70
2022-11-10T03:53:54.250Z,2.10
2022-11-10T03:56:21.810Z,1.80
2022-11-10T03:58:49.229Z,2.00
2022-11-10T04:01:16.673Z,2.00
2022-11-10T04:03:48.780Z,1.90
2022-11-10T04:06:36.377Z,2.10
2022-11-10T04:09:03.961Z,2.07
2022-11-10T04:11:49.740Z,1.83
2022-11-10T04:14:35.269Z,2.03
2022-11-10T04:17:02.785Z,2.10
2022-11-10T04:19:30.421Z,1.70
2022-11-10T04:21:59.234Z,1.93
2022-11-10T04:24:26.630Z,2.00
2022-11-10T04:26:53.126Z,1.93
2022-11-10T04:29:21.098Z,1.80
2022-11-10T04:31:48.552Z,1.70
2022-11-10T04:34:16.387Z,1.90
2022-11-10T04:36:44.622Z,1.67
2022-11-10T04:39:13.585Z,1.90
2022-11-10T04:41:41.133Z,1.60
2022-11-10T04:44:08.618Z,1.80
2022-11-10T04:46:37.123Z,1.77
2022-11-10T04:49:04.970Z,2.20
2022-11-10T04:51:33.195Z,1.97
2022-11-10T04:54:02.860Z,1.87
2022-11-10T04:56:31.683Z,2.00
2022-11-10T04:58:59.195Z,1.93
2022-11-10T05:01:27.475Z,2.27
2022-11-10T05:03:55.397Z,1.77
2022-11-10T05:06:23.114Z,2.30
2022-11-10T05:08:50.972Z,2.00
2022-11-10T05:11:18.815Z,1.80
2022-11-10T05:13:47.812Z,1.87
2022-11-10T05:16:15.241Z,1.93
2022-11-10T05:18:43.083Z,2.20
2022-11-10T05:21:10.507Z,2.20
2022-11-10T05:23:41.564Z,2.13
2022-11-10T05:26:09.996Z,1.80
2022-11-10T05:28:37.592Z,1.60
2022-11-10T05:31:06.751Z,1.90
2022-11-10T05:33:34.306Z,1.70
2022-11-10T05:36:01.970Z,2.47
2022-11-10T05:38:29.388Z,2.00
2022-11-10T05:40:57.022Z,1.90
2022-11-10T05:43:24.873Z,1.97
2022-11-10T05:45:52.620Z,2.10
2022-11-10T05:48:21.379Z,1.70
2022-11-10T05:50:49.606Z,1.80
2022-11-10T05:53:16.996Z,1.80
2022-11-10T05:55:44.417Z,1.97
2022-11-10T05:58:12.111Z,1.80
2022-11-10T06:00:39.514Z,1.83
2022-11-10T06:03:07.938Z,1.73
2022-11-10T06:05:36.925Z,1.70
2022-11-10T06:08:05.110Z,1.90
2022-11-10T06:10:32.925Z,2.00
2022-11-10T06:13:00.322Z,1.90
2022-11-10T06:15:27.976Z,1.90
2022-11-10T06:17:55.611Z,1.97
2022-11-10T06:20:23.413Z,1.80
2022-11-10T06:23:08.830Z,1.97
2022-11-10T06:25:38.779Z,1.70
2022-11-10T06:28:06.918Z,2.13
2022-11-10T06:30:35.677Z,2.17
2022-11-10T06:33:03.411Z,2.10
2022-11-10T06:35:31.180Z,2.63
2022-11-10T06:38:00.026Z,2.50
2022-11-10T06:40:27.671Z,1.97
2022-11-10T06:42:56.704Z,2.33
2022-11-10T06:45:24.913Z,2.30
2022-11-10T06:47:59.917Z,1.57
2022-11-10T06:50:27.307Z,2.10
2022-11-10T06:52:55.170Z,2.50
2022-11-10T06:55:22.607Z,2.10
2022-11-10T06:57:50.116Z,2.00
2022-11-10T07:00:19.374Z,2.07
2022-11-10T07:02:46.871Z,2.10
2022-11-10T07:05:15.307Z,2.40
2022-11-10T07:07:43.712Z,2.10
2022-11-10T07:10:11.180Z,2.00
2022-11-10T07:12:38.551Z,2.00
2022-11-10T07:15:06.528Z,2.27
2022-11-10T07:17:39.724Z,2.53
2022-11-10T07:20:08.038Z,2.33
2022-11-10T07:22:35.437Z,2.67
2022-11-10T07:25:02.856Z,2.50
2022-11-10T07:27:30.271Z,2.50
2022-11-10T07:29:57.674Z,2.23
2022-11-10T07:32:25.099Z,2.50
2022-11-10T07:34:53.865Z,3.00
2022-11-10T07:37:21.261Z,2.30
2022-11-10T07:39:48.934Z,3.37
2022-11-10T07:42:16.391Z,3.40
2022-11-10T07:44:43.796Z,2.53
2022-11-10T07:47:11.200Z,2.53
2022-11-10T07:49:38.642Z,2.30
2022-11-10T07:52:07.391Z,2.03
2022-11-10T07:54:34.785Z,2.10
2022-11-10T07:57:02.210Z,2.47
2022-11-10T07:59:29.616Z,2.27
2022-11-10T08:01:57.177Z,2.30
2022-11-10T08:04:24.611Z,2.50
2022-11-10T08:06:52.317Z,2.53
2022-11-10T08:09:21.111Z,2.50
2022-11-10T08:11:48.524Z,2.80
2022-11-10T08:14:15.939Z,2.97
2022-11-10T08:16:43.759Z,3.40
2022-11-10T08:19:11.157Z,2.90
2022-11-10T08:21:38.576Z,3.20
2022-11-10T08:24:06.121Z,3.00
2022-11-10T08:26:34.871Z,3.20
2022-11-10T08:29:02.303Z,2.70
2022-11-10T08:31:29.682Z,2.50
2022-11-10T08:33:57.038Z,2.67
2022-11-10T08:36:24.599Z,2.33
2022-11-10T08:38:52.014Z,2.67
2022-11-10T08:41:19.402Z,2.70
2022-11-10T08:43:48.595Z,2.57
2022-11-10T08:46:16.419Z,2.50
2022-11-10T08:48:43.830Z,2.60
2022-11-10T08:51:11.251Z,2.33
2022-11-10T08:53:38.647Z,3.60
2022-11-10T08:56:06.543Z,2.70
2022-11-10T08:58:33.928Z,3.37
2022-11-10T09:01:02.744Z,2.20
2022-11-10T09:03:30.072Z,2.60
2022-11-10T09:05:58.870Z,2.60
2022-11-10T09:08:26.615Z,2.60
2022-11-10T09:10:53.940Z,2.93
2022-11-10T09:13:27.822Z,3.07
2022-11-10T09:15:56.646Z,2.70
2022-11-10T09:18:25.329Z,2.10
2022-11-10T09:20:52.696Z,2.33
2022-11-10T09:23:20.378Z,2.20
2022-11-10T09:25:50.247Z,2.33
2022-11-10T09:28:18.249Z,2.10
2022-11-10T09:30:46.599Z,2.43
2022-11-10T09:33:14.178Z,2.20
2022-11-10T09:35:42.987Z,2.20
2022-11-10T09:38:11.792Z,2.17
2022-11-10T09:40:44.931Z,2.43
2022-11-10T09:43:15.166Z,2.27
2022-11-10T09:45:43.444Z,2.30
2022-11-10T09:48:16.550Z,1.83
2022-11-10T09:50:48.606Z,1.97
2022-11-10T09:53:17.390Z,1.97
2022-11-10T09:55:47.093Z,2.10
2022-11-10T09:58:15.039Z,2.20
2022-11-10T10:00:43.632Z,1.77
2022-11-10T10:03:15.152Z,2.07
2022-11-10T10:05:51.461Z,1.87
2022-11-10T10:08:23.652Z,1.70
2022-11-10T10:10:57.320Z,2.20
2022-11-10T10:13:31.398Z,2.53
2022-11-10T10:16:02.530Z,1.80
2022-11-10T10:18:32.680Z,2.10
2022-11-10T10:21:07.325Z,1.67
2022-11-10T10:24:07.272Z,1.93
2022-11-10T10:26:24.934Z,2.13
2022-11-10T10:28:52.570Z,1.70
2022-11-10T10:31:20.756Z,1.83
2022-11-10T10:33:49.423Z,1.87
2022-11-10T10:36:20.957Z,1.60
2022-11-10T10:38:50.488Z,2.03
2022-11-10T10:41:23.994Z,2.00
2022-11-10T10:43:53.146Z,2.00
2022-11-10T10:46:27.652Z,2.20
2022-11-10T10:49:30.577Z,2.10
2022-11-10T10:52:07.742Z,2.10
2022-11-10T10:54:35.965Z,1.87
2022-11-10T10:57:16.017Z,2.03
2022-11-10T10:59:43.440Z,1.70
2022-11-10T11:02:22.009Z,2.30
2022-11-10T11:04:49.833Z,1.43
2022-11-10T11:07:23.049Z,1.80
2022-11-10T11:09:50.554Z,1.60
2022-11-10T11:12:27.124Z,1.87
2022-11-10T11:15:11.692Z,1.80
2022-11-10T11:17:39.173Z,1.47
2022-11-10T11:20:07.546Z,1.90
2022-11-10T11:22:49.993Z,1.70
2022-11-10T11:25:20.941Z,1.60
2022-11-10T11:27:53.481Z,1.80
2022-11-10T11:30:22.053Z,1.70
2022-11-10T11:32:57.339Z,1.50
2022-11-10T11:35:28.771Z,1.60
2022-11-10T11:38:01.382Z,1.33
2022-11-10T11:40:33.187Z,1.47
2022-11-10T11:43:07.210Z,1.53
2022-11-10T11:45:40.277Z,1.77
2022-11-10T11:48:19.980Z,1.63
2022-11-10T11:50:51.846Z,1.77
2022-11-10T11:53:27.495Z,1.90
2022-11-10T11:55:59.722Z,1.97
2022-11-10T11:58:33.359Z,1.40
2022-11-10T12:01:05.538Z,1.30
2022-11-10T12:03:42.648Z,1.43
2022-11-10T12:06:19.754Z,1.70
2022-11-10T12:08:52.962Z,1.50
2022-11-10T12:11:23.785Z,1.40
2022-11-10T12:13:56.652Z,1.43
2022-11-10T12:16:27.078Z,1.90
2022-11-10T12:18:59.662Z,1.60
2022-11-10T12:21:32.252Z,1.50
2022-11-10T12:24:20.342Z,1.20
2022-11-10T12:26:52.123Z,1.63
2022-11-10T12:29:23.189Z,1.47
2022-11-10T12:31:53.298Z,1.60
2022-11-10T12:34:24.961Z,1.20
2022-11-10T12:36:52.711Z,1.50
2022-11-10T12:39:21.818Z,1.50
2022-11-10T12:41:51.934Z,1.43
2022-11-10T12:44:22.027Z,1.63
2022-11-10T12:46:52.230Z,1.30
2022-11-10T12:49:20.578Z,1.33
2022-11-10T12:51:52.901Z,1.50
2022-11-10T12:54:22.091Z,1.40
2022-11-10T12:56:53.139Z,1.20
2022-11-10T12:59:25.862Z,1.90
2022-11-10T13:01:57.776Z,1.33
2022-11-10T13:04:25.533Z,1.50
2022-11-10T13:06:55.012Z,1.60
2022-11-10T13:09:23.893Z,1.50
2022-11-10T13:12:06.348Z,1.43
2022-11-10T13:14:34.411Z,1.20
2022-11-10T13:17:01.878Z,1.60
2022-11-10T13:19:48.016Z,1.53
2022-11-10T13:22:29.852Z,1.37
2022-11-10T13:25:12.209Z,1.43
2022-11-10T13:27:53.694Z,1.63
2022-11-10T13:30:35.973Z,1.50
2022-11-10T13:33:18.307Z,1.50
2022-11-10T13:35:54.899Z,1.57
2022-11-10T13:38:35.245Z,1.70
2022-11-10T13:41:29.549Z,1.40
2022-11-10T13:43:58.365Z,1.40
2022-11-10T13:46:33.845Z,1.30
2022-11-10T13:49:17.064Z,1.33
2022-11-10T13:51:46.509Z,1.57
2022-11-10T13:54:25.372Z,1.40
2022-11-10T13:57:07.554Z,1.40
2022-11-10T13:59:45.966Z,1.30
2022-11-10T14:02:31.894Z,1.43
2022-11-10T14:04:59.422Z,1.70
2022-11-10T14:07:29.271Z,1.30
2022-11-10T14:09:57.039Z,1.50
2022-11-10T14:12:26.559Z,1.87
2022-11-10T14:14:59.105Z,1.40
2022-11-10T14:17:28.589Z,1.33
2022-11-10T14:19:56.201Z,1.83
2022-11-10T14:22:27.472Z,1.40
2022-11-10T14:24:59.086Z,1.40
2022-11-10T14:27:28.127Z,1.70
2022-11-10T14:30:08.371Z,1.50
2022-11-10T14:32:36.524Z,1.30
2022-11-10T14:35:04.425Z,1.43
2022-11-10T14:37:31.959Z,1.27
2022-11-10T14:40:01.271Z,1.47
2022-11-10T14:42:30.419Z,1.77
2022-11-10T14:45:12.794Z,1.30
2022-11-10T14:47:46.265Z,1.53
2022-11-10T14:50:18.227Z,1.70
2022-11-10T14:52:47.762Z,1.73
2022-11-10T14:55:17.094Z,1.50
2022-11-10T14:57:47.803Z,1.30
2022-11-10T15:00:18.673Z,1.90
2022-11-10T15:02:46.496Z,1.70
2022-11-10T15:05:15.652Z,1.27
2022-11-10T15:07:44.601Z,1.50
2022-11-10T15:10:16.175Z,1.70
2022-11-10T15:12:43.539Z,1.50
2022-11-10T15:15:22.176Z,1.63
2022-11-10T15:17:51.169Z,1.70
2022-11-10T15:20:38.210Z,2.00
2022-11-10T15:23:06.805Z,1.80
2022-11-10T15:25:38.483Z,1.83
2022-11-10T15:28:07.548Z,1.77
2022-11-10T15:30:36.325Z,1.87
2022-11-10T15:33:09.878Z,1.83
2022-11-10T15:35:37.521Z,1.67
2022-11-10T15:38:06.325Z,1.80
2022-11-10T15:40:35.683Z,2.20
2022-11-10T15:43:16.018Z,2.10
2022-11-10T15:45:45.482Z,2.27
2022-11-10T15:48:13.898Z,2.00
2022-11-10T15:50:42.344Z,1.67
2022-11-10T15:53:13.503Z,2.30
2022-11-10T15:55:41.477Z,2.50
2022-11-10T15:58:12.901Z,2.30
2022-11-10T16:00:40.314Z,1.90
2022-11-10T16:03:12.335Z,1.70
2022-11-10T16:05:41.126Z,1.97
2022-11-10T16:08:13.742Z,2.03
2022-11-10T16:10:41.550Z,2.07
2022-11-10T16:13:10.345Z,2.10
2022-11-10T16:15:37.755Z,2.37
2022-11-10T16:18:05.420Z,2.53
2022-11-10T16:20:34.178Z,2.37
2022-11-10T16:23:01.615Z,2.13
2022-11-10T16:25:29.034Z,2.10
2022-11-10T16:27:56.648Z,2.27
2022-11-10T16:30:24.151Z,2.37
2022-11-10T16:32:51.540Z,3.10
2022-11-10T16:35:18.946Z,2.70
2022-11-10T16:37:48.116Z,3.93
2022-11-10T16:40:16.494Z,2.20
2022-11-10T16:42:44.263Z,2.70
2022-11-10T16:45:14.809Z,2.20
2022-11-10T16:47:42.390Z,2.10
2022-11-10T16:50:30.224Z,2.23
2022-11-10T16:52:59.163Z,2.00
2022-11-10T16:55:26.558Z,2.43
2022-11-10T16:57:54.259Z,2.50
2022-11-10T17:00:22.242Z,2.37
2022-11-10T17:02:59.823Z,2.77
2022-11-10T17:05:27.301Z,2.43
2022-11-10T17:07:55.017Z,2.90
2022-11-10T17:10:23.887Z,3.40
2022-11-10T17:12:51.477Z,2.73
2022-11-10T17:15:19.840Z,3.03
2022-11-10T17:17:48.387Z,2.80
2022-11-10T17:20:18.641Z,2.53
2022-11-10T17:22:46.534Z,2.37
2022-11-10T17:25:16.575Z,2.50
2022-11-10T17:27:45.339Z,2.43
2022-11-10T17:30:13.943Z,2.50
2022-11-10T17:33:03.554Z,3.00
2022-11-10T17:35:28.816Z,2.73
2022-11-10T17:37:59.240Z,2.90
2022-11-10T17:40:27.555Z,2.80
2022-11-10T17:42:56.279Z,2.70
2022-11-10T17:45:24.429Z,2.70
2022-11-10T17:47:52.194Z,2.27
2022-11-10T17:50:20.473Z,2.60
2022-11-10T17:52:48.310Z,2.67
2022-11-10T17:55:17.798Z,2.93
2022-11-10T17:57:45.505Z,2.90
2022-11-10T18:00:15.211Z,2.60
2022-11-10T18:02:42.797Z,2.60
2022-11-10T18:05:11.411Z,2.93
2022-11-10T18:07:38.921Z,2.97
2022-11-10T18:10:07.024Z,3.00
2022-11-10T18:12:34.609Z,3.00
2022-11-10T18:15:02.073Z,2.70
2022-11-10T18:17:30.860Z,3.00
2022-11-10T18:19:58.352Z,2.97
2022-11-10T18:22:25.876Z,2.60
2022-11-10T18:24:53.487Z,2.83
2022-11-10T18:27:20.897Z,3.40
2022-11-10T18:29:48.379Z,3.43
2022-11-10T18:32:15.875Z,3.30
2022-11-10T18:34:44.708Z,2.90
2022-11-10T18:37:12.206Z,4.10
2022-11-10T18:39:39.606Z,6.17
2022-11-10T18:42:07.002Z,7.17
2022-11-10T18:44:36.779Z,6.17
2022-11-10T18:47:04.195Z,6.10
2022-11-10T18:49:31.841Z,4.03
2022-11-10T18:52:01.096Z,4.00
2022-11-10T18:54:28.597Z,5.40
2022-11-10T18:56:56.019Z,5.50
2022-11-10T18:59:23.401Z,5.40
2022-11-10T19:01:51.183Z,5.83
2022-11-10T19:04:18.747Z,6.90
2022-11-10T19:06:46.253Z,7.53
2022-11-10T19:09:15.186Z,8.17
2022-11-10T19:11:43.681Z,8.27
2022-11-10T19:14:11.089Z,7.47
2022-11-10T19:16:38.522Z,5.60
2022-11-10T19:19:05.943Z,5.13
2022-11-10T19:21:33.373Z,5.47
2022-11-10T19:24:00.786Z,5.40
2022-11-10T19:26:29.821Z,5.07
2022-11-10T19:28:57.294Z,4.90
2022-11-10T19:31:24.991Z,5.47
2022-11-10T19:33:54.159Z,6.00
2022-11-10T19:36:22.747Z,5.30
2022-11-10T19:38:50.157Z,6.33
2022-11-10T19:41:18.745Z,7.00
2022-11-10T19:43:47.884Z,6.57
2022-11-10T19:46:16.460Z,7.53
2022-11-10T19:48:44.758Z,7.57
2022-11-10T19:51:12.815Z,8.17
2022-11-10T19:53:40.474Z,7.83
2022-11-10T19:56:09.234Z,7.00
2022-11-10T19:58:37.133Z,7.37
2022-11-10T20:01:06.151Z,7.10
2022-11-10T20:03:33.988Z,6.67
2022-11-10T20:06:02.136Z,5.90
2022-11-10T20:08:29.588Z,5.50
2022-11-10T20:10:59.463Z,5.40
2022-11-10T20:13:26.823Z,5.90
2022-11-10T20:15:54.455Z,4.60
2022-11-10T20:18:23.455Z,5.17
2022-11-10T20:20:50.828Z,4.80
2022-11-10T20:23:18.854Z,4.73
2022-11-10T20:25:46.258Z,5.17
2022-11-10T20:28:14.238Z,7.10
2022-11-10T20:30:43.756Z,10.73
2022-11-10T20:33:11.214Z,10.43
2022-11-10T20:35:43.845Z,8.37
2022-11-10T20:38:11.798Z,7.23
2022-11-10T20:40:44.332Z,6.63
2022-11-10T20:43:13.963Z,5.60
2022-11-10T20:45:41.511Z,5.87
2022-11-10T20:48:08.922Z,6.10
2022-11-10T20:50:36.373Z,5.57
2022-11-10T20:53:05.657Z,5.90
2022-11-10T20:55:52.485Z,6.50
2022-11-10T20:58:20.424Z,6.30
2022-11-10T21:00:47.825Z,6.10
2022-11-10T21:03:15.305Z,5.63
2022-11-10T21:05:42.706Z,5.07
2022-11-10T21:08:11.538Z,4.80
2022-11-10T21:10:38.991Z,4.70
2022-11-10T21:13:05.411Z,5.40
2022-11-10T21:15:32.931Z,4.93
2022-11-10T21:18:00.365Z,5.10
2022-11-10T21:20:27.782Z,5.00
2022-11-10T21:23:02.085Z,4.97
2022-11-10T21:25:32.102Z,5.00
2022-11-10T21:27:59.669Z,4.80
2022-11-10T21:30:27.139Z,4.80
2022-11-10T21:32:54.592Z,4.93
2022-11-10T21:35:22.192Z,4.87
2022-11-10T21:37:50.032Z,4.83
2022-11-10T21:40:17.523Z,4.43
2022-11-10T21:42:46.254Z,4.70
2022-11-10T21:45:13.672Z,4.73
2022-11-10T21:47:41.159Z,4.70
2022-11-10T21:50:08.654Z,4.23
2022-11-10T21:52:36.076Z,4.20
2022-11-10T21:55:03.482Z,4.90
2022-11-10T21:57:30.893Z,4.50
2022-11-10T21:59:59.633Z,4.50
2022-11-10T22:02:27.035Z,4.77
2022-11-10T22:04:54.497Z,4.50
2022-11-10T22:07:24.846Z,4.77
2022-11-10T22:10:10.300Z,4.40
2022-11-10T22:12:55.209Z,4.90
2022-11-10T22:15:41.303Z,5.00
2022-11-10T22:18:30.642Z,4.70
2022-11-10T22:20:58.086Z,4.60
2022-11-10T22:23:39.447Z,4.50
2022-11-10T22:26:06.857Z,4.93
2022-11-10T22:28:34.238Z,4.60
2022-11-10T22:31:04.706Z,4.47
2022-11-10T22:33:35.025Z,4.73
2022-11-10T22:36:03.854Z,5.13
2022-11-10T22:38:31.435Z,4.50
2022-11-10T22:41:28.561Z,4.40
2022-11-10T22:44:05.139Z,4.80
2022-11-10T22:46:34.729Z,4.93
2022-11-10T22:49:02.539Z,4.97
2022-11-10T22:51:30.529Z,5.00
2022-11-10T22:53:58.209Z,4.73
2022-11-10T22:56:25.895Z,4.83
2022-11-10T22:58:58.510Z,5.40
2022-11-10T23:01:27.232Z,5.37
2022-11-10T23:03:57.423Z,5.37
2022-11-10T23:06:25.142Z,4.67
2022-11-10T23:08:52.767Z,4.67
2022-11-10T23:11:20.909Z,4.80
2022-11-10T23:13:49.730Z,4.83
2022-11-10T23:16:18.254Z,5.03
2022-11-10T23:18:46.898Z,5.30
2022-11-10T23:21:16.506Z,5.30
2022-11-10T23:23:44.463Z,4.60
2022-11-10T23:26:12.828Z,5.00
2022-11-10T23:28:40.686Z,5.07
2022-11-10T23:31:09.068Z,5.20
2022-11-10T23:33:37.510Z,4.93
2022-11-10T23:36:05.051Z,5.10
2022-11-10T23:38:34.624Z,4.83
2022-11-10T23:41:02.696Z,4.60
2022-11-10T23:43:30.311Z,5.00
2022-11-10T23:46:06.960Z,5.13
2022-11-10T23:48:35.145Z,5.37
2022-11-10T23:51:02.631Z,5.17
2022-11-10T23:53:30.131Z,4.93
2022-11-10T23:55:59.440Z,5.00
2022-11-10T23:58:27.063Z,4.80
